Sugar Land Regional Airport
KSGR : now visible

Airfield :











YOU CAN JOIN US ON...

 
LOGIN :

Register | Disclaimer

   EN    FR    IT 

 









Legend :    VFR   Marginal VFR   IFR   Intensive IFR   Very Intensive IFR
Visi :
Ceiling :
>= 8 km
>= 3000ft
5 to 8 km
1000 to 3000 ft
1500m to 5 km
500 to 1000 ft
800 to 1500m
200 to 500 ft
< 800m
< 200 ft
Symbols :   Thunderstorms  Fog  Heavy snow  Heavy precipitations  Wind > 20 kt






- Airport Elevation : 82 ft


KSGR - Sugar Land Regional

CURRENT METAR :
  • 270453Z AUTO 34005KT 10SM CLR 05/M03 A3045 RMK AO2 SLP313 T00501028 $

EXPIRED METARs :
  • 270353Z AUTO 35004KT 10SM CLR 06/M02 A3044 RMK AO2 SLP309 T00611022 $
  • 270253Z 34009KT 10SM CLR 07/M02 A3041 RMK AO2 SLP301 T00721022 53024 $

TAF KSGR
Valid from the 27 at 06:00 until the 28 at 06:00 UTC


270520Z 2706/2806 35004KT P6SM SKC
FM270800 VRB04KT P6SM SKC
FM271400 26005KT P6SM SKC
FM280100 20003KT P6SM SKC



MET'MAP, your aeronautical weather chart ! - Copyright ORBIFLY December 2007 - Disclaimer

ORBIFLY MET'MAP TEAM :

Programming & Development : Alexandra Zaïnal
Concept & original design : Baudouin d'Aumeries
Assistance for programming : Marc-Olivier Méhu
Technical & hardware support : Manuel Goepfert

Contact : metmap@orbifly.com




SOURCES & CREDITS :

   NOAA       Earth
Advisory